createdAt,value
2018-05-26T00:01:01.749Z,13.27
2018-05-26T00:03:30.156Z,13.13
2018-05-26T00:05:58.410Z,13.60
2018-05-26T00:08:26.900Z,13.97
2018-05-26T00:10:55.167Z,14.23
2018-05-26T00:13:23.439Z,12.03
2018-05-26T00:15:51.692Z,14.47
2018-05-26T00:18:19.920Z,13.17
2018-05-26T00:20:48.912Z,13.23
2018-05-26T00:23:17.316Z,13.37
2018-05-26T00:25:46.282Z,12.97
2018-05-26T00:28:14.570Z,12.70
2018-05-26T00:30:42.802Z,12.83
2018-05-26T00:33:13.004Z,13.63
2018-05-26T00:35:41.267Z,13.00
2018-05-26T00:38:10.771Z,13.00
2018-05-26T00:40:39.899Z,13.50
2018-05-26T00:43:08.176Z,12.87
2018-05-26T00:45:36.379Z,14.50
2018-05-26T00:48:04.606Z,14.47
2018-05-26T00:50:32.916Z,14.03
2018-05-26T00:53:01.167Z,14.60
2018-05-26T00:55:30.998Z,14.67
2018-05-26T00:57:59.274Z,15.00
2018-05-26T01:00:27.542Z,14.13
2018-05-26T01:02:56.160Z,15.23
2018-05-26T01:05:24.368Z,14.80
2018-05-26T01:07:53.355Z,14.27
2018-05-26T01:10:22.312Z,14.17
2018-05-26T01:12:50.680Z,14.00
2018-05-26T01:15:18.898Z,13.97
2018-05-26T01:17:47.195Z,15.27
2018-05-26T01:20:16.188Z,14.00
2018-05-26T01:22:45.254Z,16.50
2018-05-26T01:25:13.480Z,14.47
2018-05-26T01:27:41.763Z,15.00
2018-05-26T01:30:10.759Z,14.97
2018-05-26T01:32:38.950Z,15.07
2018-05-26T01:35:07.384Z,14.43
2018-05-26T01:37:36.399Z,13.90
2018-05-26T01:40:04.609Z,15.30
2018-05-26T01:42:32.935Z,14.37
2018-05-26T01:45:01.187Z,15.07
2018-05-26T01:47:29.683Z,15.30
2018-05-26T01:52:33.465Z,15.37
2018-05-26T01:55:02.487Z,14.40
2018-05-26T01:57:31.080Z,13.83
2018-05-26T02:00:01.519Z,14.40
2018-05-26T02:02:30.622Z,14.77
2018-05-26T02:04:59.610Z,15.80
2018-05-26T02:07:27.827Z,15.93
2018-05-26T02:09:56.094Z,14.70
2018-05-26T02:12:24.391Z,15.37
2018-05-26T02:14:52.679Z,16.83
2018-05-26T02:17:20.906Z,17.63
2018-05-26T02:19:49.222Z,15.40
2018-05-26T02:22:18.191Z,17.37
2018-05-26T02:24:46.418Z,16.27
2018-05-26T02:27:14.630Z,18.37
2018-05-26T02:29:42.910Z,16.90
2018-05-26T02:32:11.151Z,16.80
2018-05-26T02:34:40.223Z,15.33
2018-05-26T02:37:09.449Z,16.27
2018-05-26T02:39:37.665Z,18.03
2018-05-26T02:42:06.057Z,16.93
2018-05-26T02:44:34.284Z,17.03
2018-05-26T02:47:02.499Z,16.30
2018-05-26T02:49:30.715Z,16.10
2018-05-26T02:51:58.932Z,15.73
2018-05-26T02:54:27.122Z,16.73
2018-05-26T02:56:55.374Z,15.10
2018-05-26T02:59:23.927Z,15.70
2018-05-26T03:01:53.008Z,15.80
2018-05-26T03:04:26.903Z,16.07
2018-05-26T03:07:00.791Z,16.37
2018-05-26T03:09:34.753Z,15.27
2018-05-26T03:12:09.283Z,14.43
2018-05-26T03:14:45.385Z,14.63
2018-05-26T03:17:17.419Z,13.77
2018-05-26T03:19:47.314Z,13.53
2018-05-26T03:22:15.609Z,13.87
2018-05-26T03:24:43.814Z,13.67
2018-05-26T03:27:12.048Z,15.17
2018-05-26T03:29:41.045Z,14.40
2018-05-26T03:32:11.082Z,14.23
2018-05-26T03:34:39.315Z,14.07
2018-05-26T03:37:07.515Z,13.60
2018-05-26T03:39:36.587Z,14.60
2018-05-26T03:42:04.788Z,14.27
2018-05-26T03:44:33.766Z,14.33
2018-05-26T03:47:02.770Z,16.53
2018-05-26T03:49:32.414Z,16.63
2018-05-26T03:52:00.648Z,15.07
2018-05-26T03:54:41.371Z,16.23
2018-05-26T03:57:35.135Z,15.30
2018-05-26T04:00:18.051Z,15.07
2018-05-26T04:02:46.364Z,14.37
2018-05-26T04:05:14.567Z,14.20
2018-05-26T04:07:44.235Z,15.20
2018-05-26T04:10:12.556Z,13.37
2018-05-26T04:12:41.539Z,14.40
2018-05-26T04:15:09.738Z,15.20
2018-05-26T04:17:37.995Z,15.13
2018-05-26T04:20:07.043Z,13.73
2018-05-26T04:22:36.010Z,16.00
2018-05-26T04:25:04.240Z,14.47
2018-05-26T04:27:32.448Z,37.77
2018-05-26T04:30:00.723Z,13.23
2018-05-26T04:32:29.771Z,13.60
2018-05-26T04:34:58.367Z,16.13
2018-05-26T04:37:26.638Z,16.00
2018-05-26T04:39:54.878Z,14.63
2018-05-26T04:42:23.136Z,16.63
2018-05-26T04:44:52.186Z,16.00
2018-05-26T04:47:20.407Z,15.07
2018-05-26T04:49:48.731Z,14.47
2018-05-26T04:52:16.931Z,15.73
2018-05-26T04:54:45.158Z,16.70
2018-05-26T04:57:13.379Z,13.77
2018-05-26T04:59:41.655Z,15.37
2018-05-26T05:02:09.850Z,14.70
2018-05-26T05:04:38.878Z,16.30
2018-05-26T05:07:07.092Z,14.97
2018-05-26T05:09:35.302Z,14.03
2018-05-26T05:12:04.079Z,14.83
2018-05-26T05:14:33.087Z,13.67
2018-05-26T05:17:02.098Z,15.57
2018-05-26T05:19:30.379Z,15.50
2018-05-26T05:21:58.726Z,16.40
2018-05-26T05:24:27.707Z,16.00
2018-05-26T05:26:56.695Z,14.47
2018-05-26T05:29:25.154Z,15.77
2018-05-26T05:31:53.354Z,15.90
2018-05-26T05:34:21.590Z,16.00
2018-05-26T05:36:49.866Z,17.50
2018-05-26T05:39:18.223Z,15.17
2018-05-26T05:41:46.480Z,16.83
2018-05-26T05:44:15.616Z,16.97
2018-05-26T05:46:45.427Z,19.33
2018-05-26T05:49:13.685Z,18.33
2018-05-26T05:51:42.142Z,16.70
2018-05-26T05:54:11.419Z,16.00
2018-05-26T05:56:39.622Z,16.83
2018-05-26T05:59:08.602Z,16.87
2018-05-26T06:01:37.590Z,17.73
2018-05-26T06:04:05.775Z,17.03
2018-05-26T06:06:35.239Z,14.73
2018-05-26T06:09:03.475Z,16.10
2018-05-26T06:11:31.783Z,16.87
2018-05-26T06:14:00.019Z,15.23
2018-05-26T06:16:28.243Z,16.43
2018-05-26T06:18:56.552Z,14.83
2018-05-26T06:21:24.823Z,15.60
2018-05-26T06:23:53.516Z,14.00
2018-05-26T06:26:22.590Z,13.37
2018-05-26T06:28:50.758Z,11.57
2018-05-26T06:31:19.007Z,11.13
2018-05-26T06:33:47.263Z,10.47
2018-05-26T06:36:15.466Z,10.43
2018-05-26T06:38:43.937Z,9.23
2018-05-26T06:41:12.147Z,9.43
2018-05-26T06:43:40.351Z,11.07
2018-05-26T06:46:11.023Z,7.83
2018-05-26T06:48:39.431Z,8.23
2018-05-26T06:51:07.674Z,9.40
2018-05-26T06:53:35.908Z,8.53
2018-05-26T06:56:04.792Z,7.33
2018-05-26T06:58:33.090Z,7.90
2018-05-26T07:01:02.058Z,9.33
2018-05-26T07:03:30.543Z,5.40
2018-05-26T07:05:58.865Z,6.77
2018-05-26T07:08:27.126Z,5.83
2018-05-26T07:10:55.423Z,5.03
2018-05-26T07:15:55.411Z,4.43
2018-05-26T07:18:23.626Z,5.57
2018-05-26T07:20:51.814Z,6.20
2018-05-26T07:23:20.128Z,5.30
2018-05-26T07:25:48.405Z,5.53
2018-05-26T07:28:16.687Z,5.43
2018-05-26T07:30:44.995Z,5.23
2018-05-26T07:33:13.204Z,4.70
2018-05-26T07:35:41.476Z,4.70
2018-05-26T07:38:09.702Z,3.80
2018-05-26T07:40:38.008Z,3.80
2018-05-26T07:43:07.015Z,3.23
2018-05-26T07:45:35.221Z,4.20
2018-05-26T07:48:04.324Z,4.33
2018-05-26T07:50:32.655Z,3.63
2018-05-26T07:53:00.963Z,6.90
2018-05-26T07:55:29.134Z,5.03
2018-05-26T07:57:57.373Z,6.37
2018-05-26T08:00:26.679Z,3.60
2018-05-26T08:02:54.874Z,3.43
2018-05-26T08:05:23.189Z,3.77
2018-05-26T08:07:52.119Z,5.53
2018-05-26T08:10:21.405Z,6.60
2018-05-26T08:12:51.235Z,5.80
2018-05-26T08:15:19.479Z,3.43
2018-05-26T08:17:47.943Z,2.70
2018-05-26T08:20:16.162Z,3.47
2018-05-26T08:22:44.564Z,5.57
2018-05-26T08:25:12.759Z,3.37
2018-05-26T08:27:40.999Z,3.77
2018-05-26T08:30:09.531Z,5.10
2018-05-26T08:32:37.755Z,3.40
2018-05-26T08:35:06.027Z,4.20
2018-05-26T08:37:34.327Z,7.30
2018-05-26T08:40:02.635Z,5.77
2018-05-26T08:42:30.863Z,3.30
2018-05-26T08:44:59.279Z,3.77
2018-05-26T08:47:27.507Z,4.77
2018-05-26T08:49:56.759Z,3.10
2018-05-26T08:52:25.121Z,2.80
2018-05-26T08:54:53.382Z,4.53
2018-05-26T08:57:22.523Z,3.13
2018-05-26T08:59:50.767Z,3.90
2018-05-26T09:02:18.984Z,4.70
2018-05-26T09:04:47.315Z,3.87
2018-05-26T09:07:15.507Z,3.73
2018-05-26T09:09:43.734Z,3.97
2018-05-26T09:12:12.728Z,4.17
2018-05-26T09:14:41.890Z,4.13
2018-05-26T09:17:10.301Z,4.33
2018-05-26T09:19:38.539Z,6.20
2018-05-26T09:22:06.879Z,5.00
2018-05-26T09:24:35.894Z,4.17
2018-05-26T09:27:04.092Z,4.37
2018-05-26T09:29:32.335Z,7.03
2018-05-26T09:32:00.574Z,5.30
2018-05-26T09:34:28.770Z,5.33
2018-05-26T09:36:57.129Z,7.13
2018-05-26T09:39:26.715Z,5.10
2018-05-26T09:41:54.919Z,4.27
2018-05-26T09:44:23.882Z,4.47
2018-05-26T09:46:52.482Z,5.43
2018-05-26T09:49:20.678Z,8.63
2018-05-26T09:51:48.956Z,4.93
2018-05-26T09:54:17.136Z,5.70
2018-05-26T09:56:45.442Z,5.43
2018-05-26T09:59:13.660Z,5.37
2018-05-26T10:01:41.848Z,4.87
2018-05-26T10:04:10.840Z,4.63
2018-05-26T10:06:39.947Z,4.13
2018-05-26T10:09:08.203Z,4.47
2018-05-26T10:11:36.570Z,5.50
2018-05-26T10:14:05.011Z,6.33
2018-05-26T10:16:33.252Z,4.90
2018-05-26T10:19:02.327Z,9.97
2018-05-26T10:21:30.547Z,7.03
2018-05-26T10:23:58.977Z,6.63
2018-05-26T10:26:27.175Z,4.13
2018-05-26T10:28:56.154Z,6.43
2018-05-26T10:31:25.136Z,4.97
2018-05-26T10:33:53.853Z,3.83
2018-05-26T10:36:22.023Z,4.40
2018-05-26T10:38:50.991Z,4.00
2018-05-26T10:41:19.243Z,3.87
2018-05-26T10:43:47.867Z,4.13
2018-05-26T10:46:24.785Z,4.30
2018-05-26T10:48:52.999Z,5.00
2018-05-26T10:51:21.339Z,4.80
2018-05-26T10:53:49.542Z,4.27
2018-05-26T10:56:17.763Z,4.47
2018-05-26T10:58:46.813Z,7.60
2018-05-26T11:01:15.551Z,4.30
2018-05-26T11:03:44.521Z,4.00
2018-05-26T11:06:13.771Z,5.80
2018-05-26T11:08:42.391Z,4.53
2018-05-26T11:11:11.039Z,4.47
2018-05-26T11:13:39.400Z,4.20
2018-05-26T11:16:08.272Z,4.97
2018-05-26T11:18:37.251Z,5.30
2018-05-26T11:21:05.610Z,4.33
2018-05-26T11:23:34.159Z,4.37
2018-05-26T11:26:02.519Z,4.60
2018-05-26T11:28:31.680Z,4.03
2018-05-26T11:31:00.117Z,4.50
2018-05-26T11:33:28.918Z,6.63
2018-05-26T11:35:57.215Z,3.67
2018-05-26T11:38:25.609Z,5.33
2018-05-26T11:40:54.502Z,3.93
2018-05-26T11:43:23.503Z,5.97
2018-05-26T11:45:51.783Z,4.10
2018-05-26T11:48:21.168Z,4.87
2018-05-26T11:50:49.582Z,5.37
2018-05-26T11:53:18.553Z,4.17
2018-05-26T11:55:46.763Z,4.30
2018-05-26T11:58:14.985Z,8.30
2018-05-26T12:00:44.479Z,3.70
2018-05-26T12:03:12.667Z,3.70
2018-05-26T12:05:40.995Z,3.73
2018-05-26T12:08:09.188Z,4.03
2018-05-26T12:10:37.443Z,4.20
2018-05-26T12:13:05.675Z,3.70
2018-05-26T12:15:33.984Z,4.97
2018-05-26T12:18:02.978Z,4.43
2018-05-26T12:20:31.195Z,3.93
2018-05-26T12:23:00.264Z,4.63
2018-05-26T12:25:29.239Z,5.27
2018-05-26T12:27:58.332Z,3.80
2018-05-26T12:30:29.173Z,4.50
2018-05-26T12:32:58.231Z,5.13
2018-05-26T12:35:26.601Z,4.30
2018-05-26T12:37:55.011Z,4.60
2018-05-26T12:40:24.595Z,3.93
2018-05-26T12:42:52.880Z,3.70
2018-05-26T12:45:21.211Z,4.20
2018-05-26T12:47:49.920Z,6.20
2018-05-26T12:50:18.180Z,3.50
2018-05-26T12:52:47.218Z,4.40
2018-05-26T12:55:15.411Z,5.63
2018-05-26T12:57:43.681Z,3.40
2018-05-26T13:00:11.923Z,3.10
2018-05-26T13:02:40.242Z,3.37
2018-05-26T13:05:10.063Z,3.23
2018-05-26T13:07:38.280Z,3.00
2018-05-26T13:10:06.535Z,5.13
2018-05-26T13:12:35.540Z,2.30
2018-05-26T13:15:03.946Z,3.70
2018-05-26T13:17:32.173Z,3.47
2018-05-26T13:20:00.515Z,4.47
2018-05-26T13:22:28.883Z,2.57
2018-05-26T13:25:04.016Z,2.27
2018-05-26T13:27:36.303Z,3.40
2018-05-26T13:30:08.613Z,4.20
2018-05-26T13:32:36.938Z,3.73
2018-05-26T13:35:05.282Z,2.63
2018-05-26T13:37:33.565Z,2.57
2018-05-26T13:40:01.851Z,4.23
2018-05-26T13:42:30.258Z,3.17
2018-05-26T13:44:58.536Z,2.30
2018-05-26T13:47:26.915Z,2.87
2018-05-26T13:49:55.198Z,2.67
2018-05-26T13:54:57.959Z,3.03
2018-05-26T13:57:26.153Z,4.70
2018-05-26T13:59:54.454Z,3.73
2018-05-26T14:02:22.668Z,4.50
2018-05-26T14:04:51.834Z,3.03
2018-05-26T14:07:21.578Z,3.77
2018-05-26T14:09:50.670Z,3.67
2018-05-26T14:12:19.692Z,4.97
2018-05-26T14:14:47.923Z,3.53
2018-05-26T14:17:16.333Z,3.53
2018-05-26T14:19:45.359Z,5.50
2018-05-26T14:22:13.554Z,5.40
2018-05-26T14:24:41.970Z,3.73
2018-05-26T14:27:10.191Z,3.60
2018-05-26T14:29:38.431Z,4.27
2018-05-26T14:32:07.539Z,2.97
2018-05-26T14:34:36.611Z,3.50
2018-05-26T14:37:04.826Z,4.83
2018-05-26T14:39:33.055Z,2.60
2018-05-26T14:42:01.351Z,3.60
2018-05-26T14:44:30.542Z,2.60
2018-05-26T14:46:59.595Z,2.90
2018-05-26T14:49:27.783Z,2.47
2018-05-26T14:51:56.019Z,2.40
2018-05-26T14:54:24.248Z,3.10
2018-05-26T14:56:52.451Z,3.43
2018-05-26T14:59:21.694Z,2.63
2018-05-26T15:01:49.966Z,3.47
2018-05-26T15:04:18.199Z,5.60
2018-05-26T15:06:47.171Z,1.97
2018-05-26T15:09:17.095Z,3.83
2018-05-26T15:11:45.499Z,2.43
2018-05-26T15:14:14.451Z,6.03
2018-05-26T15:16:42.732Z,2.90
2018-05-26T15:19:11.039Z,2.80
2018-05-26T15:21:39.813Z,3.30
2018-05-26T15:24:08.889Z,3.30
2018-05-26T15:26:37.162Z,2.33
2018-05-26T15:29:05.411Z,1.97
2018-05-26T15:31:34.432Z,6.50
2018-05-26T15:34:02.689Z,2.40
2018-05-26T15:36:31.683Z,4.20
2018-05-26T15:38:59.904Z,7.10
2018-05-26T15:41:28.099Z,2.83
2018-05-26T15:43:56.324Z,3.67
2018-05-26T15:46:24.518Z,5.93
2018-05-26T15:48:52.709Z,2.30
2018-05-26T15:51:21.095Z,4.30
2018-05-26T15:53:49.276Z,4.37
2018-05-26T15:56:17.482Z,2.53
2018-05-26T15:58:46.624Z,4.23
2018-05-26T16:01:14.814Z,2.90
2018-05-26T16:03:43.211Z,3.40
2018-05-26T16:06:11.407Z,2.70
2018-05-26T16:08:40.807Z,5.20
2018-05-26T16:11:09.767Z,3.47
2018-05-26T16:13:37.992Z,2.20
2018-05-26T16:16:06.187Z,2.57
2018-05-26T16:18:34.442Z,3.13
2018-05-26T16:21:02.682Z,3.03
2018-05-26T16:23:31.144Z,3.17
2018-05-26T16:25:59.331Z,2.90
2018-05-26T16:28:27.528Z,4.97
2018-05-26T16:30:56.578Z,5.33
2018-05-26T16:33:25.015Z,4.83
2018-05-26T16:35:53.180Z,4.10
2018-05-26T16:38:21.415Z,3.03
2018-05-26T16:40:49.663Z,3.70
2018-05-26T16:43:17.858Z,3.30
2018-05-26T16:45:46.075Z,3.07
2018-05-26T16:48:15.130Z,4.43
2018-05-26T16:50:43.346Z,4.57
2018-05-26T16:53:12.443Z,3.80
2018-05-26T16:55:41.402Z,5.57
2018-05-26T16:58:09.646Z,4.23
2018-05-26T17:00:38.066Z,3.77
2018-05-26T17:03:06.505Z,4.70
2018-05-26T17:05:35.431Z,3.20
2018-05-26T17:08:03.843Z,3.53
2018-05-26T17:10:32.050Z,4.13
2018-05-26T17:13:00.247Z,5.83
2018-05-26T17:15:28.477Z,4.90
2018-05-26T17:17:57.473Z,5.10
2018-05-26T17:20:25.650Z,4.77
2018-05-26T17:22:53.846Z,6.20
2018-05-26T17:25:22.105Z,4.27
2018-05-26T17:27:50.359Z,7.20
2018-05-26T17:30:18.643Z,5.60
2018-05-26T17:32:46.966Z,6.37
2018-05-26T17:35:15.271Z,4.30
2018-05-26T17:37:43.578Z,7.23
2018-05-26T17:40:12.542Z,5.17
2018-05-26T17:42:40.948Z,4.60
2018-05-26T17:45:10.028Z,4.40
2018-05-26T17:47:38.308Z,5.03
2018-05-26T17:50:06.771Z,6.37
2018-05-26T17:52:35.163Z,8.13
2018-05-26T17:55:03.384Z,4.90
2018-05-26T17:57:31.936Z,6.50
2018-05-26T18:00:00.250Z,6.10
2018-05-26T18:02:28.513Z,6.80
2018-05-26T18:04:56.885Z,6.03
2018-05-26T18:07:25.142Z,7.03
2018-05-26T18:09:53.403Z,7.10
2018-05-26T18:12:21.700Z,5.07
2018-05-26T18:14:50.022Z,5.63
2018-05-26T18:17:18.264Z,5.40
2018-05-26T18:19:46.478Z,5.63
2018-05-26T18:22:15.154Z,6.10
2018-05-26T18:24:43.878Z,5.83
2018-05-26T18:27:12.102Z,8.07
2018-05-26T18:29:40.391Z,5.10
2018-05-26T18:32:08.608Z,5.53
2018-05-26T18:34:36.900Z,6.10
2018-05-26T18:37:09.030Z,5.17
2018-05-26T18:39:37.343Z,5.77
2018-05-26T18:42:05.569Z,5.23
2018-05-26T18:44:33.830Z,6.57
2018-05-26T18:47:02.024Z,6.67
2018-05-26T18:49:30.355Z,8.97
2018-05-26T18:51:59.323Z,5.20
2018-05-26T18:54:27.510Z,6.40
2018-05-26T18:56:56.029Z,5.27
2018-05-26T18:59:24.214Z,6.70
2018-05-26T19:01:52.418Z,6.47
2018-05-26T19:04:20.695Z,6.03
2018-05-26T19:06:49.449Z,9.37
2018-05-26T19:09:17.716Z,6.57
2018-05-26T19:11:45.931Z,5.80
2018-05-26T19:14:14.251Z,6.10
2018-05-26T19:16:43.228Z,8.37
2018-05-26T19:19:11.546Z,6.67
2018-05-26T19:21:39.759Z,6.73
2018-05-26T19:24:08.106Z,7.23
2018-05-26T19:26:36.328Z,8.30
2018-05-26T19:29:04.636Z,7.07
2018-05-26T19:31:32.882Z,7.07
2018-05-26T19:34:01.106Z,6.40
2018-05-26T19:36:29.309Z,6.43
2018-05-26T19:38:57.508Z,7.40
2018-05-26T19:41:25.802Z,6.60
2018-05-26T19:43:54.071Z,9.37
2018-05-26T19:46:22.264Z,7.03
2018-05-26T19:48:51.303Z,9.23
2018-05-26T19:51:19.546Z,7.60
2018-05-26T19:53:47.749Z,7.57
2018-05-26T19:56:17.366Z,8.13
2018-05-26T19:58:45.587Z,8.40
2018-05-26T20:01:14.601Z,8.37
2018-05-26T20:03:43.614Z,8.60
2018-05-26T20:06:12.090Z,7.80
2018-05-26T20:08:40.258Z,8.20
2018-05-26T20:11:08.455Z,7.67
2018-05-26T20:13:36.671Z,8.33
2018-05-26T20:16:05.654Z,8.47
2018-05-26T20:18:33.915Z,8.10
2018-05-26T20:21:02.115Z,8.50
2018-05-26T20:23:30.366Z,8.53
2018-05-26T20:25:58.563Z,8.83
2018-05-26T20:28:27.258Z,8.97
2018-05-26T20:30:56.241Z,9.20
2018-05-26T20:33:24.473Z,8.70
2018-05-26T20:35:52.672Z,8.90
2018-05-26T20:38:20.940Z,8.27
2018-05-26T20:40:49.327Z,9.10
2018-05-26T20:43:17.650Z,9.40
2018-05-26T20:45:45.909Z,9.23
2018-05-26T20:48:16.237Z,9.80
2018-05-26T20:50:44.611Z,12.60
2018-05-26T20:53:12.877Z,11.20
2018-05-26T20:55:41.155Z,9.80
2018-05-26T20:58:09.510Z,9.40
2018-05-26T21:00:37.707Z,11.37
2018-05-26T21:03:06.115Z,13.67
2018-05-26T21:05:35.107Z,9.63
2018-05-26T21:08:04.274Z,10.20
2018-05-26T21:10:32.597Z,11.33
2018-05-26T21:13:01.558Z,11.43
2018-05-26T21:15:30.543Z,11.20
2018-05-26T21:17:58.738Z,9.93
2018-05-26T21:20:27.898Z,12.13
2018-05-26T21:22:56.156Z,12.17
2018-05-26T21:25:24.439Z,10.80
2018-05-26T21:27:52.721Z,11.90
2018-05-26T21:30:20.931Z,14.57
2018-05-26T21:32:49.158Z,11.30
2018-05-26T21:35:17.384Z,11.63
2018-05-26T21:37:46.355Z,11.40
2018-05-26T21:40:14.963Z,11.50
2018-05-26T21:42:44.121Z,12.23
2018-05-26T21:45:12.386Z,12.00
2018-05-26T21:47:40.642Z,11.67
2018-05-26T21:50:08.846Z,13.83
2018-05-26T21:52:37.212Z,12.53
2018-05-26T21:55:05.343Z,12.07
2018-05-26T21:57:35.511Z,12.30
2018-05-26T22:00:03.811Z,12.80
2018-05-26T22:02:32.013Z,12.97
2018-05-26T22:05:01.031Z,14.67
2018-05-26T22:07:29.239Z,13.33
2018-05-26T22:09:57.601Z,12.70
2018-05-26T22:12:25.890Z,12.47
2018-05-26T22:14:54.141Z,13.50
2018-05-26T22:17:22.351Z,12.63
2018-05-26T22:19:50.654Z,13.27
2018-05-26T22:22:19.814Z,12.60
2018-05-26T22:24:48.087Z,12.93
2018-05-26T22:27:16.304Z,13.10
2018-05-26T22:29:44.575Z,12.93
2018-05-26T22:32:12.867Z,12.77
2018-05-26T22:34:41.934Z,12.20
2018-05-26T22:37:10.234Z,12.60
2018-05-26T22:39:39.250Z,13.43
2018-05-26T22:42:07.450Z,12.50
2018-05-26T22:44:35.695Z,13.23
2018-05-26T22:47:03.954Z,12.50
2018-05-26T22:49:32.946Z,13.13
2018-05-26T22:52:01.923Z,12.83
2018-05-26T22:54:30.205Z,12.57
2018-05-26T22:56:58.583Z,12.80
2018-05-26T22:59:26.855Z,12.73
2018-05-26T23:01:55.111Z,13.43
2018-05-26T23:04:23.344Z,12.77
2018-05-26T23:06:51.725Z,12.90
2018-05-26T23:09:20.210Z,13.60
2018-05-26T23:11:48.703Z,12.20
2018-05-26T23:14:16.961Z,12.80
2018-05-26T23:16:45.338Z,13.17
2018-05-26T23:19:14.333Z,13.80
2018-05-26T23:21:42.868Z,13.43
2018-05-26T23:24:11.091Z,13.07
2018-05-26T23:26:39.384Z,14.50
2018-05-26T23:29:07.732Z,13.00
2018-05-26T23:31:36.003Z,12.73
2018-05-26T23:34:04.478Z,12.77
2018-05-26T23:36:32.983Z,13.13
2018-05-26T23:39:01.989Z,13.37
2018-05-26T23:41:31.052Z,12.87
2018-05-26T23:43:59.371Z,14.07
2018-05-26T23:46:27.567Z,13.43
2018-05-26T23:48:55.991Z,14.67
2018-05-26T23:51:25.139Z,14.97
2018-05-26T23:53:53.351Z,13.90
2018-05-26T23:56:21.586Z,14.93
2018-05-26T23:58:49.877Z,13.50
